Terminal Aerodrome Forecast
Issued by NWS

Home | Current Version | Previous Version | Graphics & Text | Print | Product List | Glossary On
Versions: 1 2 3 4 5 6 7 8 9 10 11 12 13 14 15 16 17 18 19 20 21
000
FTUS43 KGRB 190900 AAA
TAFMTW
TAF AMD
KMTW 190922Z 1909/2006 16005KT P6SM OVC010
     FM191500 20012G20KT P6SM SCT100 BKN250
     FM200000 19009KT P6SM BKN100 BKN250=

USA.gov is the U.S. government's official web portal to all federal, state and local government web resources and services.